sensor_id;sensor_type;location;lat;lon;timestamp;pressure;altitude;pressure_sealevel;temperature;humidity
9774;BME280;4926;42.670;23.316;2023-08-21T00:02:13;94850.34;;;25.14;55.20
9774;BME280;4926;42.670;23.316;2023-08-21T00:04:41;94849.88;;;25.08;55.48
9774;BME280;4926;42.670;23.316;2023-08-21T00:07:07;94848.69;;;25.06;55.79
9774;BME280;4926;42.670;23.316;2023-08-21T00:09:36;94850.31;;;25.10;55.81
9774;BME280;4926;42.670;23.316;2023-08-21T00:12:03;94840.28;;;24.88;55.54
9774;BME280;4926;42.670;23.316;2023-08-21T00:14:31;94850.44;;;24.91;55.78
9774;BME280;4926;42.670;23.316;2023-08-21T00:16:58;94840.78;;;24.97;55.87
9774;BME280;4926;42.670;23.316;2023-08-21T00:19:24;94846.34;;;25.04;56.05
9774;BME280;4926;42.670;23.316;2023-08-21T00:21:51;94844.84;;;25.10;55.78
9774;BME280;4926;42.670;23.316;2023-08-21T00:24:18;94840.97;;;25.11;55.50
9774;BME280;4926;42.670;23.316;2023-08-21T00:26:47;94845.66;;;25.14;55.19
9774;BME280;4926;42.670;23.316;2023-08-21T00:29:14;94840.22;;;25.14;54.75
9774;BME280;4926;42.670;23.316;2023-08-21T00:31:42;94843.78;;;25.18;54.91
9774;BME280;4926;42.670;23.316;2023-08-21T00:34:09;94842.22;;;25.21;55.16
9774;BME280;4926;42.670;23.316;2023-08-21T00:36:36;94840.31;;;25.21;54.93
9774;BME280;4926;42.670;23.316;2023-08-21T00:39:02;94843.34;;;25.16;55.04
9774;BME280;4926;42.670;23.316;2023-08-21T00:41:32;94842.66;;;25.23;55.27
9774;BME280;4926;42.670;23.316;2023-08-21T00:43:59;94852.78;;;25.22;55.42
9774;BME280;4926;42.670;23.316;2023-08-21T00:46:29;94855.50;;;25.22;55.31
9774;BME280;4926;42.670;23.316;2023-08-21T00:48:58;94858.25;;;25.22;55.54
9774;BME280;4926;42.670;23.316;2023-08-21T00:51:25;94857.97;;;25.01;56.18
9774;BME280;4926;42.670;23.316;2023-08-21T00:53:55;94854.00;;;24.95;56.83
9774;BME280;4926;42.670;23.316;2023-08-21T00:56:22;94866.56;;;25.03;57.08
9774;BME280;4926;42.670;23.316;2023-08-21T00:58:49;94858.97;;;24.90;57.37
9774;BME280;4926;42.670;23.316;2023-08-21T01:01:17;94861.56;;;24.79;57.63
9774;BME280;4926;42.670;23.316;2023-08-21T01:03:46;94859.78;;;24.64;57.43
9774;BME280;4926;42.670;23.316;2023-08-21T01:06:15;94862.72;;;24.52;57.91
9774;BME280;4926;42.670;23.316;2023-08-21T01:08:48;94871.00;;;24.33;59.63
9774;BME280;4926;42.670;23.316;2023-08-21T01:11:20;94874.03;;;24.28;59.84
9774;BME280;4926;42.670;23.316;2023-08-21T01:13:54;94864.53;;;24.18;60.22
9774;BME280;4926;42.670;23.316;2023-08-21T01:16:22;94868.94;;;24.26;60.33
9774;BME280;4926;42.670;23.316;2023-08-21T01:18:52;94866.09;;;24.19;60.34
9774;BME280;4926;42.670;23.316;2023-08-21T01:21:25;94869.28;;;24.25;60.49
9774;BME280;4926;42.670;23.316;2023-08-21T01:23:53;94867.25;;;24.18;60.86
9774;BME280;4926;42.670;23.316;2023-08-21T01:26:20;94872.00;;;24.25;60.72
9774;BME280;4926;42.670;23.316;2023-08-21T01:28:47;94859.78;;;24.12;60.75
9774;BME280;4926;42.670;23.316;2023-08-21T01:31:17;94878.09;;;24.15;60.98
9774;BME280;4926;42.670;23.316;2023-08-21T01:33:47;94870.28;;;24.13;61.26
9774;BME280;4926;42.670;23.316;2023-08-21T01:36:17;94864.47;;;24.15;60.77
9774;BME280;4926;42.670;23.316;2023-08-21T01:38:44;94876.94;;;24.16;60.92
9774;BME280;4926;42.670;23.316;2023-08-21T01:41:14;94880.91;;;24.22;61.24
9774;BME280;4926;42.670;23.316;2023-08-21T01:43:41;94880.28;;;24.32;60.84
9774;BME280;4926;42.670;23.316;2023-08-21T01:46:09;94872.19;;;24.36;60.57
9774;BME280;4926;42.670;23.316;2023-08-21T01:48:36;94872.88;;;24.29;60.83
9774;BME280;4926;42.670;23.316;2023-08-21T01:51:03;94876.31;;;24.26;60.53
9774;BME280;4926;42.670;23.316;2023-08-21T01:53:29;94874.13;;;24.35;59.62
9774;BME280;4926;42.670;23.316;2023-08-21T01:56:00;94874.97;;;24.39;60.41
9774;BME280;4926;42.670;23.316;2023-08-21T01:58:28;94871.69;;;24.30;60.78
9774;BME280;4926;42.670;23.316;2023-08-21T02:01:00;94871.88;;;24.41;61.35
9774;BME280;4926;42.670;23.316;2023-08-21T02:03:29;94873.09;;;24.43;61.23
9774;BME280;4926;42.670;23.316;2023-08-21T02:05:55;94871.34;;;24.32;61.88
9774;BME280;4926;42.670;23.316;2023-08-21T02:08:30;94871.69;;;24.30;62.04
9774;BME280;4926;42.670;23.316;2023-08-21T02:10:57;94868.69;;;24.35;62.12
9774;BME280;4926;42.670;23.316;2023-08-21T02:13:23;94875.66;;;24.33;62.33
9774;BME280;4926;42.670;23.316;2023-08-21T02:15:51;94873.59;;;24.26;62.62
9774;BME280;4926;42.670;23.316;2023-08-21T02:18:28;94877.56;;;24.32;62.50
9774;BME280;4926;42.670;23.316;2023-08-21T02:20:55;94865.97;;;24.35;62.31
9774;BME280;4926;42.670;23.316;2023-08-21T02:23:22;94871.00;;;24.33;61.80
9774;BME280;4926;42.670;23.316;2023-08-21T02:25:49;94864.59;;;24.22;62.00
9774;BME280;4926;42.670;23.316;2023-08-21T02:28:16;94866.06;;;24.16;62.37
9774;BME280;4926;42.670;23.316;2023-08-21T02:30:45;94875.34;;;24.15;62.58
9774;BME280;4926;42.670;23.316;2023-08-21T02:33:13;94866.66;;;24.06;62.69
9774;BME280;4926;42.670;23.316;2023-08-21T02:35:43;94862.16;;;23.94;63.19
9774;BME280;4926;42.670;23.316;2023-08-21T02:38:10;94871.53;;;23.97;63.39
9774;BME280;4926;42.670;23.316;2023-08-21T02:40:43;94879.69;;;23.97;63.43
9774;BME280;4926;42.670;23.316;2023-08-21T02:43:09;94871.81;;;23.92;63.58
9774;BME280;4926;42.670;23.316;2023-08-21T02:45:38;94869.53;;;23.94;63.36
9774;BME280;4926;42.670;23.316;2023-08-21T02:48:07;94879.63;;;23.93;63.45
9774;BME280;4926;42.670;23.316;2023-08-21T02:50:35;94877.28;;;23.92;63.57
9774;BME280;4926;42.670;23.316;2023-08-21T02:53:02;94875.72;;;23.91;63.92
9774;BME280;4926;42.670;23.316;2023-08-21T02:55:29;94873.28;;;23.86;64.02
9774;BME280;4926;42.670;23.316;2023-08-21T02:57:56;94880.22;;;23.61;65.38
9774;BME280;4926;42.670;23.316;2023-08-21T03:00:25;94887.81;;;23.52;66.05
9774;BME280;4926;42.670;23.316;2023-08-21T03:02:52;94881.03;;;23.42;66.75
9774;BME280;4926;42.670;23.316;2023-08-21T03:05:25;94887.97;;;23.40;67.69
9774;BME280;4926;42.670;23.316;2023-08-21T03:07:53;94885.66;;;23.03;68.62
9774;BME280;4926;42.670;23.316;2023-08-21T03:10:21;94896.88;;;22.83;70.52
9774;BME280;4926;42.670;23.316;2023-08-21T03:12:48;94902.06;;;22.72;70.48
9774;BME280;4926;42.670;23.316;2023-08-21T03:15:17;94898.94;;;22.70;70.73
9774;BME280;4926;42.670;23.316;2023-08-21T03:17:44;94910.63;;;22.74;71.17
9774;BME280;4926;42.670;23.316;2023-08-21T03:20:17;94911.53;;;22.63;71.74
9774;BME280;4926;42.670;23.316;2023-08-21T03:22:44;94907.19;;;22.58;72.21
9774;BME280;4926;42.670;23.316;2023-08-21T03:25:12;94918.97;;;22.66;72.39
9774;BME280;4926;42.670;23.316;2023-08-21T03:27:44;94907.19;;;22.58;72.79
9774;BME280;4926;42.670;23.316;2023-08-21T03:30:14;94916.09;;;22.59;73.00
9774;BME280;4926;42.670;23.316;2023-08-21T03:32:41;94907.34;;;22.65;72.75
9774;BME280;4926;42.670;23.316;2023-08-21T03:35:08;94916.88;;;22.59;73.09
9774;BME280;4926;42.670;23.316;2023-08-21T03:37:37;94920.22;;;22.53;73.62
9774;BME280;4926;42.670;23.316;2023-08-21T03:40:04;94922.69;;;22.58;73.27
9774;BME280;4926;42.670;23.316;2023-08-21T03:42:32;94920.47;;;22.63;73.29
9774;BME280;4926;42.670;23.316;2023-08-21T03:44:59;94913.78;;;22.76;72.38
9774;BME280;4926;42.670;23.316;2023-08-21T03:47:28;94909.50;;;22.75;71.24
9774;BME280;4926;42.670;23.316;2023-08-21T03:49:55;94907.91;;;22.74;70.97
9774;BME280;4926;42.670;23.316;2023-08-21T03:52:24;94916.66;;;22.83;71.81
9774;BME280;4926;42.670;23.316;2023-08-21T03:54:51;94918.75;;;22.90;71.63
9774;BME280;4926;42.670;23.316;2023-08-21T03:57:17;94911.97;;;22.99;71.00
9774;BME280;4926;42.670;23.316;2023-08-21T03:59:47;94911.25;;;23.02;69.80
9774;BME280;4926;42.670;23.316;2023-08-21T04:02:16;94907.75;;;22.83;70.61
9774;BME280;4926;42.670;23.316;2023-08-21T04:04:45;94908.44;;;22.80;70.67
9774;BME280;4926;42.670;23.316;2023-08-21T04:07:15;94918.84;;;22.78;71.57
9774;BME280;4926;42.670;23.316;2023-08-21T04:09:41;94919.81;;;22.85;71.70
9774;BME280;4926;42.670;23.316;2023-08-21T04:12:08;94919.66;;;22.97;71.40
9774;BME280;4926;42.670;23.316;2023-08-21T04:14:40;94921.41;;;23.05;71.10
9774;BME280;4926;42.670;23.316;2023-08-21T04:17:10;94929.44;;;23.17;70.60
9774;BME280;4926;42.670;23.316;2023-08-21T04:19:39;94930.00;;;23.27;70.37
9774;BME280;4926;42.670;23.316;2023-08-21T04:22:08;94922.03;;;23.34;69.97
9774;BME280;4926;42.670;23.316;2023-08-21T04:24:35;94931.59;;;23.47;69.45
9774;BME280;4926;42.670;23.316;2023-08-21T04:27:02;94931.38;;;23.55;69.43
9774;BME280;4926;42.670;23.316;2023-08-21T04:29:31;94930.38;;;23.63;69.18
9774;BME280;4926;42.670;23.316;2023-08-21T04:31:58;94939.38;;;23.67;68.98
9774;BME280;4926;42.670;23.316;2023-08-21T04:34:28;94929.41;;;23.75;68.46
9774;BME280;4926;42.670;23.316;2023-08-21T04:36:57;94920.53;;;23.78;68.38
9774;BME280;4926;42.670;23.316;2023-08-21T04:39:25;94928.13;;;23.88;68.36
9774;BME280;4926;42.670;23.316;2023-08-21T04:41:54;94934.81;;;23.94;68.02
9774;BME280;4926;42.670;23.316;2023-08-21T04:44:21;94935.34;;;23.99;67.37
9774;BME280;4926;42.670;23.316;2023-08-21T04:46:52;94929.97;;;24.03;66.97
9774;BME280;4926;42.670;23.316;2023-08-21T04:49:19;94933.09;;;24.05;66.71
9774;BME280;4926;42.670;23.316;2023-08-21T04:51:47;94927.22;;;24.03;66.10
9774;BME280;4926;42.670;23.316;2023-08-21T04:54:13;94937.31;;;24.02;65.55
9774;BME280;4926;42.670;23.316;2023-08-21T04:56:40;94935.47;;;24.06;65.32
9774;BME280;4926;42.670;23.316;2023-08-21T04:59:07;94939.81;;;24.11;65.23
9774;BME280;4926;42.670;23.316;2023-08-21T05:01:33;94939.03;;;24.10;65.35
9774;BME280;4926;42.670;23.316;2023-08-21T05:04:00;94943.75;;;23.94;66.15
9774;BME280;4926;42.670;23.316;2023-08-21T05:06:27;94946.22;;;23.80;66.92
9774;BME280;4926;42.670;23.316;2023-08-21T05:08:55;94947.53;;;23.67;67.34
9774;BME280;4926;42.670;23.316;2023-08-21T05:11:24;94945.97;;;23.66;67.44
9774;BME280;4926;42.670;23.316;2023-08-21T05:13:52;94954.03;;;23.82;66.99
9774;BME280;4926;42.670;23.316;2023-08-21T05:16:22;94959.28;;;23.94;66.45
9774;BME280;4926;42.670;23.316;2023-08-21T05:18:49;94968.31;;;23.98;66.41
9774;BME280;4926;42.670;23.316;2023-08-21T05:21:17;94965.75;;;24.05;66.38
9774;BME280;4926;42.670;23.316;2023-08-21T05:23:47;94970.88;;;24.10;66.43
9774;BME280;4926;42.670;23.316;2023-08-21T05:26:15;94966.47;;;24.02;66.35
9774;BME280;4926;42.670;23.316;2023-08-21T05:28:41;94966.13;;;24.03;66.55
9774;BME280;4926;42.670;23.316;2023-08-21T05:31:08;94968.16;;;24.10;66.55
9774;BME280;4926;42.670;23.316;2023-08-21T05:33:37;94956.31;;;24.21;66.24
9774;BME280;4926;42.670;23.316;2023-08-21T05:36:04;94952.47;;;24.22;66.01
9774;BME280;4926;42.670;23.316;2023-08-21T05:38:31;94951.66;;;24.22;65.79
9774;BME280;4926;42.670;23.316;2023-08-21T05:40:58;94950.28;;;24.32;65.54
9774;BME280;4926;42.670;23.316;2023-08-21T05:43:27;94943.31;;;24.34;65.14
9774;BME280;4926;42.670;23.316;2023-08-21T05:45:54;94947.69;;;24.39;64.94
9774;BME280;4926;42.670;23.316;2023-08-21T05:48:21;94947.84;;;24.49;64.73
9774;BME280;4926;42.670;23.316;2023-08-21T05:50:50;94947.22;;;24.59;64.77
9774;BME280;4926;42.670;23.316;2023-08-21T05:53:17;94949.41;;;24.73;64.42
9774;BME280;4926;42.670;23.316;2023-08-21T05:55:44;94943.28;;;24.79;63.57
9774;BME280;4926;42.670;23.316;2023-08-21T05:58:10;94937.25;;;24.93;63.19
9774;BME280;4926;42.670;23.316;2023-08-21T06:00:39;94940.03;;;24.96;62.21
9774;BME280;4926;42.670;23.316;2023-08-21T06:03:06;94924.09;;;24.98;61.99
9774;BME280;4926;42.670;23.316;2023-08-21T06:05:32;94943.88;;;25.21;61.75
9774;BME280;4926;42.670;23.316;2023-08-21T06:07:59;94943.94;;;25.28;61.76
9774;BME280;4926;42.670;23.316;2023-08-21T06:10:26;94944.28;;;25.23;61.54
9774;BME280;4926;42.670;23.316;2023-08-21T06:12:53;94944.00;;;25.32;60.02
9774;BME280;4926;42.670;23.316;2023-08-21T06:15:20;94947.91;;;25.31;60.53
9774;BME280;4926;42.670;23.316;2023-08-21T06:17:53;94942.50;;;25.34;60.37
9774;BME280;4926;42.670;23.316;2023-08-21T06:20:22;94945.94;;;25.31;59.75
9774;BME280;4926;42.670;23.316;2023-08-21T06:22:49;94943.31;;;25.38;59.36
9774;BME280;4926;42.670;23.316;2023-08-21T06:25:15;94942.78;;;25.56;59.27
9774;BME280;4926;42.670;23.316;2023-08-21T06:27:44;94944.09;;;25.69;58.25
9774;BME280;4926;42.670;23.316;2023-08-21T06:30:11;94936.72;;;25.73;57.19
9774;BME280;4926;42.670;23.316;2023-08-21T06:32:39;94946.09;;;25.72;57.67
9774;BME280;4926;42.670;23.316;2023-08-21T06:35:08;94946.25;;;25.89;57.26
9774;BME280;4926;42.670;23.316;2023-08-21T06:37:35;94945.66;;;26.03;56.74
9774;BME280;4926;42.670;23.316;2023-08-21T06:40:01;94939.56;;;26.16;56.26
9774;BME280;4926;42.670;23.316;2023-08-21T06:42:31;94943.63;;;26.36;55.10
9774;BME280;4926;42.670;23.316;2023-08-21T06:44:58;94946.03;;;26.41;54.71
9774;BME280;4926;42.670;23.316;2023-08-21T06:47:25;94941.38;;;26.49;54.32
9774;BME280;4926;42.670;23.316;2023-08-21T06:49:51;94945.41;;;26.62;53.98
9774;BME280;4926;42.670;23.316;2023-08-21T06:52:19;94934.56;;;26.69;53.37
9774;BME280;4926;42.670;23.316;2023-08-21T06:54:46;94932.25;;;26.71;53.31
9774;BME280;4926;42.670;23.316;2023-08-21T06:57:13;94939.72;;;26.81;53.34
9774;BME280;4926;42.670;23.316;2023-08-21T06:59:40;94936.25;;;26.91;53.29
9774;BME280;4926;42.670;23.316;2023-08-21T07:02:06;94925.75;;;26.93;52.81
9774;BME280;4926;42.670;23.316;2023-08-21T07:04:33;94930.63;;;27.28;52.28
9774;BME280;4926;42.670;23.316;2023-08-21T07:07:00;94945.19;;;27.42;51.75
9774;BME280;4926;42.670;23.316;2023-08-21T07:09:28;94934.34;;;27.71;51.21
9774;BME280;4926;42.670;23.316;2023-08-21T07:11:57;94933.69;;;28.05;50.88
9774;BME280;4926;42.670;23.316;2023-08-21T07:14:24;94927.06;;;28.38;49.69
9774;BME280;4926;42.670;23.316;2023-08-21T07:17:01;94919.66;;;28.70;48.90
9774;BME280;4926;42.670;23.316;2023-08-21T07:19:30;94916.53;;;28.75;48.76
9774;BME280;4926;42.670;23.316;2023-08-21T07:21:57;94911.41;;;29.02;48.66
9774;BME280;4926;42.670;23.316;2023-08-21T07:24:24;94918.38;;;29.34;47.94
9774;BME280;4926;42.670;23.316;2023-08-21T07:26:52;94903.38;;;29.67;47.11
9774;BME280;4926;42.670;23.316;2023-08-21T07:29:19;94905.25;;;29.88;46.71
9774;BME280;4926;42.670;23.316;2023-08-21T07:31:45;94891.03;;;30.03;45.56
9774;BME280;4926;42.670;23.316;2023-08-21T07:34:12;94889.28;;;30.23;45.19
9774;BME280;4926;42.670;23.316;2023-08-21T07:36:39;94897.41;;;30.44;44.86
9774;BME280;4926;42.670;23.316;2023-08-21T07:39:05;94887.31;;;30.82;44.88
9774;BME280;4926;42.670;23.316;2023-08-21T07:41:32;94892.38;;;31.24;44.00
9774;BME280;4926;42.670;23.316;2023-08-21T07:44:03;94891.09;;;31.66;42.91
9774;BME280;4926;42.670;23.316;2023-08-21T07:46:32;94879.19;;;31.72;42.65
9774;BME280;4926;42.670;23.316;2023-08-21T07:48:59;94881.38;;;31.88;41.99
9774;BME280;4926;42.670;23.316;2023-08-21T07:51:26;94874.38;;;31.80;42.24
9774;BME280;4926;42.670;23.316;2023-08-21T07:53:52;94878.75;;;32.08;42.48
9774;BME280;4926;42.670;23.316;2023-08-21T07:56:19;94871.94;;;32.39;41.90
9774;BME280;4926;42.670;23.316;2023-08-21T07:58:46;94868.25;;;32.26;41.53
9774;BME280;4926;42.670;23.316;2023-08-21T08:01:14;94871.66;;;32.33;40.43
9774;BME280;4926;42.670;23.316;2023-08-21T08:03:43;94857.66;;;32.47;40.54
9774;BME280;4926;42.670;23.316;2023-08-21T08:06:09;94855.94;;;32.57;40.36
9774;BME280;4926;42.670;23.316;2023-08-21T08:08:36;94860.00;;;32.72;40.83
9774;BME280;4926;42.670;23.316;2023-08-21T08:11:06;94851.03;;;32.68;39.47
9774;BME280;4926;42.670;23.316;2023-08-21T08:13:35;94849.13;;;32.85;39.96
9774;BME280;4926;42.670;23.316;2023-08-21T08:16:02;94844.25;;;32.96;39.00
9774;BME280;4926;42.670;23.316;2023-08-21T08:18:30;94843.31;;;32.79;39.27
9774;BME280;4926;42.670;23.316;2023-08-21T08:20:56;94841.38;;;32.56;39.88
9774;BME280;4926;42.670;23.316;2023-08-21T08:23:23;94836.03;;;32.69;39.16
9774;BME280;4926;42.670;23.316;2023-08-21T08:25:50;94837.81;;;32.79;38.99
9774;BME280;4926;42.670;23.316;2023-08-21T08:28:17;94835.53;;;32.97;39.42
9774;BME280;4926;42.670;23.316;2023-08-21T08:30:43;94838.94;;;33.24;39.27
9774;BME280;4926;42.670;23.316;2023-08-21T08:33:10;94828.78;;;32.78;39.15
9774;BME280;4926;42.670;23.316;2023-08-21T08:35:38;94830.19;;;32.87;39.72
9774;BME280;4926;42.670;23.316;2023-08-21T08:38:06;94829.81;;;33.27;38.74
9774;BME280;4926;42.670;23.316;2023-08-21T08:40:41;94833.66;;;33.53;38.68
9774;BME280;4926;42.670;23.316;2023-08-21T08:43:10;94815.16;;;33.69;37.53
9774;BME280;4926;42.670;23.316;2023-08-21T08:45:36;94810.31;;;33.73;36.97
9774;BME280;4926;42.670;23.316;2023-08-21T08:48:04;94813.44;;;33.92;37.24
9774;BME280;4926;42.670;23.316;2023-08-21T08:50:32;94805.66;;;33.70;37.20
9774;BME280;4926;42.670;23.316;2023-08-21T08:53:01;94798.41;;;33.76;37.31
9774;BME280;4926;42.670;23.316;2023-08-21T08:55:27;94803.22;;;34.08;36.07
9774;BME280;4926;42.670;23.316;2023-08-21T08:57:57;94801.41;;;34.34;36.62
9774;BME280;4926;42.670;23.316;2023-08-21T09:00:24;94797.59;;;34.28;36.44
9774;BME280;4926;42.670;23.316;2023-08-21T09:02:51;94788.63;;;34.24;36.27
9774;BME280;4926;42.670;23.316;2023-08-21T09:05:18;94787.91;;;34.68;36.06
9774;BME280;4926;42.670;23.316;2023-08-21T09:07:45;94779.34;;;35.07;35.37
9774;BME280;4926;42.670;23.316;2023-08-21T09:10:15;94783.81;;;35.17;34.69
9774;BME280;4926;42.670;23.316;2023-08-21T09:12:45;94784.91;;;35.07;35.23
9774;BME280;4926;42.670;23.316;2023-08-21T09:15:12;94775.59;;;34.85;34.30
9774;BME280;4926;42.670;23.316;2023-08-21T09:17:39;94773.69;;;34.82;35.07
9774;BME280;4926;42.670;23.316;2023-08-21T09:20:07;94772.69;;;34.92;34.75
9774;BME280;4926;42.670;23.316;2023-08-21T09:22:35;94769.91;;;34.76;35.26
9774;BME280;4926;42.670;23.316;2023-08-21T09:25:03;94763.41;;;34.82;34.98
9774;BME280;4926;42.670;23.316;2023-08-21T09:27:35;94778.13;;;34.96;34.80
9774;BME280;4926;42.670;23.316;2023-08-21T09:30:03;94768.97;;;35.11;34.27
9774;BME280;4926;42.670;23.316;2023-08-21T09:32:30;94764.34;;;35.33;34.27
9774;BME280;4926;42.670;23.316;2023-08-21T09:34:57;94759.31;;;35.69;34.23
9774;BME280;4926;42.670;23.316;2023-08-21T09:37:28;94749.50;;;35.94;32.68
9774;BME280;4926;42.670;23.316;2023-08-21T09:40:00;94740.38;;;35.55;33.14
9774;BME280;4926;42.670;23.316;2023-08-21T09:42:28;94748.47;;;35.62;32.78
9774;BME280;4926;42.670;23.316;2023-08-21T09:44:56;94751.00;;;35.82;33.13
9774;BME280;4926;42.670;23.316;2023-08-21T09:47:26;94739.72;;;35.89;32.51
9774;BME280;4926;42.670;23.316;2023-08-21T09:49:53;94741.38;;;36.12;33.12
9774;BME280;4926;42.670;23.316;2023-08-21T09:52:20;94727.34;;;35.94;32.80
9774;BME280;4926;42.670;23.316;2023-08-21T09:54:47;94726.31;;;35.87;32.74
9774;BME280;4926;42.670;23.316;2023-08-21T09:57:15;94728.06;;;36.07;32.45
9774;BME280;4926;42.670;23.316;2023-08-21T09:59:43;94716.59;;;36.30;32.40
9774;BME280;4926;42.670;23.316;2023-08-21T10:02:11;94718.56;;;36.54;32.08
9774;BME280;4926;42.670;23.316;2023-08-21T10:04:40;94704.44;;;36.61;31.77
9774;BME280;4926;42.670;23.316;2023-08-21T10:07:09;94709.28;;;37.13;31.77
9774;BME280;4926;42.670;23.316;2023-08-21T10:09:40;94685.72;;;36.74;31.37
9774;BME280;4926;42.670;23.316;2023-08-21T10:12:08;94705.50;;;36.42;31.44
9774;BME280;4926;42.670;23.316;2023-08-21T10:14:36;94698.34;;;36.54;31.52
9774;BME280;4926;42.670;23.316;2023-08-21T10:17:03;94683.97;;;36.68;31.52
9774;BME280;4926;42.670;23.316;2023-08-21T10:19:33;94694.94;;;36.71;31.07
9774;BME280;4926;42.670;23.316;2023-08-21T10:21:59;94685.34;;;36.63;30.95
9774;BME280;4926;42.670;23.316;2023-08-21T10:24:33;94686.59;;;36.84;30.54
9774;BME280;4926;42.670;23.316;2023-08-21T10:27:01;94672.72;;;36.50;30.29
9774;BME280;4926;42.670;23.316;2023-08-21T10:29:27;94687.00;;;36.27;31.33
9774;BME280;4926;42.670;23.316;2023-08-21T10:32:00;94672.47;;;36.35;30.80
9774;BME280;4926;42.670;23.316;2023-08-21T10:34:33;94682.88;;;36.44;30.72
9774;BME280;4926;42.670;23.316;2023-08-21T10:37:05;94669.66;;;36.48;30.47
9774;BME280;4926;42.670;23.316;2023-08-21T10:39:33;94676.88;;;35.73;30.82
9774;BME280;4926;42.670;23.316;2023-08-21T10:42:04;94661.91;;;35.71;31.36
9774;BME280;4926;42.670;23.316;2023-08-21T10:44:47;94668.69;;;36.29;31.47
9774;BME280;4926;42.670;23.316;2023-08-21T10:47:18;94660.69;;;36.87;30.93
9774;BME280;4926;42.670;23.316;2023-08-21T10:49:48;94651.56;;;37.08;29.99
9774;BME280;4926;42.670;23.316;2023-08-21T10:52:20;94648.88;;;36.95;30.16
9774;BME280;4926;42.670;23.316;2023-08-21T10:54:51;94643.63;;;37.59;29.85
9774;BME280;4926;42.670;23.316;2023-08-21T10:57:18;94641.28;;;37.79;29.20
9774;BME280;4926;42.670;23.316;2023-08-21T10:59:53;94637.25;;;37.40;28.52
9774;BME280;4926;42.670;23.316;2023-08-21T11:02:21;94639.19;;;37.00;29.16
9774;BME280;4926;42.670;23.316;2023-08-21T11:04:50;94631.97;;;36.59;29.24
9774;BME280;4926;42.670;23.316;2023-08-21T11:07:17;94629.38;;;36.65;29.28
9774;BME280;4926;42.670;23.316;2023-08-21T11:09:44;94626.31;;;37.15;28.62
9774;BME280;4926;42.670;23.316;2023-08-21T11:12:13;94625.19;;;37.13;28.28
9774;BME280;4926;42.670;23.316;2023-08-21T11:14:42;94617.19;;;36.84;28.35
9774;BME280;4926;42.670;23.316;2023-08-21T11:17:10;94615.84;;;36.67;29.06
9774;BME280;4926;42.670;23.316;2023-08-21T11:19:37;94622.31;;;35.96;29.94
9774;BME280;4926;42.670;23.316;2023-08-21T11:22:06;94639.88;;;35.42;30.68
9774;BME280;4926;42.670;23.316;2023-08-21T11:24:40;94625.06;;;34.82;30.77
9774;BME280;4926;42.670;23.316;2023-08-21T11:27:07;94644.00;;;34.55;30.69
9774;BME280;4926;42.670;23.316;2023-08-21T11:29:39;94621.16;;;34.80;30.08
9774;BME280;4926;42.670;23.316;2023-08-21T11:32:16;94623.47;;;35.35;29.80
9774;BME280;4926;42.670;23.316;2023-08-21T11:34:48;94611.22;;;36.30;29.32
9774;BME280;4926;42.670;23.316;2023-08-21T11:37:18;94610.16;;;36.70;29.57
9774;BME280;4926;42.670;23.316;2023-08-21T11:39:46;94611.22;;;36.73;29.17
9774;BME280;4926;42.670;23.316;2023-08-21T11:42:14;94609.09;;;36.77;29.26
9774;BME280;4926;42.670;23.316;2023-08-21T11:44:46;94604.84;;;36.85;28.69
9774;BME280;4926;42.670;23.316;2023-08-21T11:47:13;94604.38;;;37.08;28.43
9774;BME280;4926;42.670;23.316;2023-08-21T11:49:41;94604.81;;;37.28;28.20
9774;BME280;4926;42.670;23.316;2023-08-21T11:52:08;94598.81;;;37.48;28.01
9774;BME280;4926;42.670;23.316;2023-08-21T11:54:38;94591.13;;;37.12;28.05
9774;BME280;4926;42.670;23.316;2023-08-21T11:57:07;94580.47;;;37.50;27.30
9774;BME280;4926;42.670;23.316;2023-08-21T11:59:34;94586.56;;;37.76;27.40
9774;BME280;4926;42.670;23.316;2023-08-21T12:02:01;94581.34;;;37.78;26.62
9774;BME280;4926;42.670;23.316;2023-08-21T12:04:32;94581.03;;;37.85;27.06
9774;BME280;4926;42.670;23.316;2023-08-21T12:07:01;94573.19;;;38.29;26.51
9774;BME280;4926;42.670;23.316;2023-08-21T12:09:28;94578.28;;;38.30;26.63
9774;BME280;4926;42.670;23.316;2023-08-21T12:11:57;94583.06;;;37.93;27.14
9774;BME280;4926;42.670;23.316;2023-08-21T12:14:27;94572.38;;;37.74;27.04
9774;BME280;4926;42.670;23.316;2023-08-21T12:16:55;94575.56;;;37.63;27.48
9774;BME280;4926;42.670;23.316;2023-08-21T12:19:27;94571.75;;;37.30;27.02
9774;BME280;4926;42.670;23.316;2023-08-21T12:21:57;94553.63;;;37.56;26.23
9774;BME280;4926;42.670;23.316;2023-08-21T12:24:24;94560.41;;;37.55;27.01
9774;BME280;4926;42.670;23.316;2023-08-21T12:26:51;94566.63;;;37.68;26.52
9774;BME280;4926;42.670;23.316;2023-08-21T12:29:22;94555.19;;;37.66;26.27
9774;BME280;4926;42.670;23.316;2023-08-21T12:31:49;94547.34;;;37.74;25.94
9774;BME280;4926;42.670;23.316;2023-08-21T12:34:15;94561.06;;;37.68;26.58
9774;BME280;4926;42.670;23.316;2023-08-21T12:36:42;94556.84;;;37.55;27.04
9774;BME280;4926;42.670;23.316;2023-08-21T12:39:09;94549.84;;;37.32;27.27
9774;BME280;4926;42.670;23.316;2023-08-21T12:41:36;94552.09;;;37.55;27.20
9774;BME280;4926;42.670;23.316;2023-08-21T12:44:03;94547.19;;;37.68;26.80
9774;BME280;4926;42.670;23.316;2023-08-21T12:46:31;94539.16;;;37.79;26.75
9774;BME280;4926;42.670;23.316;2023-08-21T12:48:58;94539.03;;;37.83;26.92
9774;BME280;4926;42.670;23.316;2023-08-21T12:51:27;94537.66;;;37.96;26.65
9774;BME280;4926;42.670;23.316;2023-08-21T12:53:54;94536.56;;;38.03;26.54
9774;BME280;4926;42.670;23.316;2023-08-21T12:56:21;94536.84;;;38.50;26.70
9774;BME280;4926;42.670;23.316;2023-08-21T12:58:49;94533.63;;;38.16;26.20
9774;BME280;4926;42.670;23.316;2023-08-21T13:01:16;94528.06;;;37.97;26.00
9774;BME280;4926;42.670;23.316;2023-08-21T13:03:45;94525.59;;;38.27;26.06
9774;BME280;4926;42.670;23.316;2023-08-21T13:06:16;94517.25;;;38.36;25.57
9774;BME280;4926;42.670;23.316;2023-08-21T13:08:43;94508.50;;;38.79;25.27
9774;BME280;4926;42.670;23.316;2023-08-21T13:11:10;94506.25;;;39.10;25.18
9774;BME280;4926;42.670;23.316;2023-08-21T13:13:36;94504.41;;;38.98;25.41
9774;BME280;4926;42.670;23.316;2023-08-21T13:16:03;94508.38;;;39.15;25.25